Latest Coastal Weather Observations for Yarram Airport

IDV60701

Issued at 5:35 pm EST Wednesday 3 September 2014 (issued every 10 minutes, with the page automatically refreshed every 10 minutes)

About coastal observations | Map of coastal stations | Coastal observations for VIC | Marine services | Other Formats
Station Details ID: 085151 Name: YARRAM AIRPORT Lat: -38.56 Lon: 146.75 Height: 17.9 m
Data from the previous 72 hours. | See also: Recent months at Yarram Airport
Date/Time
EST
Temp

°C
Wind Pressure Rain
since 9am
mm
Weather Cloud Vis
km
Sea
Height
m
Swell
Dir
 
Speed
knots
Gust
knots
hPa Trend Height
m
Period
s
Dir
03/05:30pm 10.1 SW 8 11 1020.4 - 0.0 - - - - - - -
03/05:00pm 11.3 SW 11 15 1020.3 - 0.0 - - - - - - -
03/04:30pm 12.1 WSW 13 16 1020.1 - 0.0 - - - - - - -
03/04:00pm 12.6 WSW 13 18 1020.0 - 0.0 - - - - - - -
03/03:30pm 13.3 WSW 12 16 1019.8 - 0.0 - - - - - - -
03/03:00pm 13.4 WSW 11 16 1019.7 - 0.0 - - - - - - -
03/02:30pm 13.7 WSW 12 16 1019.7 - 0.0 - - - - - - -
03/02:00pm 13.7 WSW 13 16 1019.7 - 0.0 - - - - - - -
03/01:30pm 13.7 WSW 11 15 1019.8 - 0.0 - - - - - - -
03/01:00pm 13.5 WSW 10 14 1019.9 - 0.0 - - - - - - -
03/12:30pm 13.3 WSW 11 14 1020.4 - 0.0 - - - - - - -
03/12:00pm 13.3 SW 10 13 1020.8 - 0.0 - - - - - - -
03/11:30am 12.7 W 11 14 1021.2 - 0.0 - - - - - - -
03/11:00am 12.3 WSW 10 14 1021.6 - 0.0 - - - - - - -
03/10:30am 11.8 WSW 10 14 1022.1 - 0.0 - - - - - - -
03/10:00am 11.4 SW 10 13 1022.3 - 0.0 - - - - - - -
03/09:30am 11.8 SW 10 13 1022.4 - 0.0 - - - - - - -
03/09:00am 10.7 W 8 11 1022.5 - 2.0 - - - - - - -
03/08:30am 9.8 W 7 8 1022.4 - 2.0 - - - - - - -
03/08:00am 8.4 W 7 9 1022.1 - 2.0 - - - - - - -
03/07:30am 7.0 W 7 9 1022.1 - 2.0 - - - - - - -
03/07:00am 5.6 WNW 8 10 1021.8 - 2.0 - - - - - - -
03/06:30am 5.2 W 8 10 1021.6 - 2.0 - - - - - - -
03/06:00am 4.7 W 7 8 1021.6 - 2.0 - - - - - - -
03/05:30am 5.4 W 8 9 1021.3 - 2.0 - - - - - - -
03/05:00am 5.8 W 9 11 1021.2 - 2.0 - - - - - - -
03/04:30am 4.8 W 7 8 1020.9 - 2.0 - - - - - - -
03/04:00am 4.7 W 7 9 1020.8 - 2.0 - - - - - - -
03/03:30am 5.5 W 7 8 1020.7 - 2.0 - - - - - - -
03/03:00am 6.3 W 8 10 1020.7 - 2.0 - - - - - - -
03/02:30am 6.2 W 8 11 1020.7 - 2.0 - - - - - - -
03/02:00am 6.6 W 8 9 1020.9 - 2.0 - - - - - - -
03/01:30am 7.4 W 8 11 1021.0 - 2.0 - - - - - - -
03/01:00am 6.7 W 8 10 1021.0 - 2.0 - - - - - - -
03/12:30am 6.2 WNW 8 9 1021.0 - 2.0 - - - - - - -
03/12:00am 6.0 WNW 8 9 1021.2 - 2.0 - - - - - - -
 
Date/Time
EST
Temp

°C
Wind Pressure Rain
since 9am
mm
Weather Cloud Vis
km
Sea
Height
m
Swell
Dir
 
Speed
knots
Gust
knots
hPa Trend Height
m
Period
s
Dir
02/11:30pm 5.5 WNW 8 8 1021.1 - 2.0 - - - - - - -
02/11:00pm 5.7 WNW 8 9 1021.1 - 2.0 - - - - - - -
02/10:30pm 5.9 W 7 9 1021.2 - 2.0 - - - - - - -
02/10:00pm 6.2 W 8 10 1021.2 - 2.0 - - - - - - -
02/09:30pm 5.6 WNW 8 9 1021.2 - 2.0 - - - - - - -
02/09:00pm 5.6 WNW 7 8 1021.2 - 2.0 - - - - - - -
02/08:30pm 6.4 W 8 10 1021.1 - 2.0 - - - - - - -
02/08:00pm 6.1 W 7 9 1021.0 - 2.0 - - - - - - -
02/07:30pm 6.5 WSW 7 10 1020.8 - 2.0 - - - - - - -
02/07:00pm 5.9 WSW 6 7 1020.6 - 2.0 - - - - - - -
02/06:30pm 7.2 WSW 8 9 1020.4 - 2.0 - - - - - - -
02/06:00pm 8.0 SSW 8 11 1020.1 - 2.0 - - - - - - -
02/05:30pm 9.5 SSW 10 13 1019.8 - 2.0 - - - - - - -
02/05:00pm 10.0 S 12 16 1019.5 - 2.0 - - - - - - -
02/04:30pm 11.4 S 15 19 1019.0 - 2.0 - - - - - - -
02/04:00pm 12.0 S 15 19 1018.8 - 2.0 - - - - - - -
02/03:30pm 12.5 S 14 19 1018.3 - 2.0 - - - - - - -
02/03:00pm 12.6 S 15 19 1018.1 - 2.0 - - - - - - -
02/02:30pm 12.7 S 16 22 1017.8 - 2.0 - - - - - - -
02/02:00pm 13.0 S 15 20 1017.4 - 2.0 - - - - - - -
02/01:30pm 11.7 SSW 14 19 1017.3 - 2.0 - - - - - - -
02/01:00pm 12.4 SSW 8 11 1017.0 - 2.0 - - - - - - -
02/12:30pm 11.2 SSE 9 11 1017.3 - 2.0 - - - - - - -
02/12:00pm 11.6 SSW 11 14 1017.2 - 2.0 Recent precip. - - - - - -
02/11:30am 10.0 S 12 18 1017.0 - 1.8 - - - - - - -
02/11:00am 8.8 S 11 20 1016.9 - 1.4 - - - - - - -
02/10:48am 10.2 S 15 25 1016.9 - 0.0 - - - - - - -
02/10:30am 11.8 S 14 17 1016.6 - 0.0 - - - - - - -
02/10:00am 11.7 S 12 18 1016.4 - 0.0 - - - - - - -
02/09:30am 10.3 S 15 21 1015.9 - 0.0 - - - - - - -
02/09:00am 11.0 SW 11 15 1015.6 - 2.8 Recent precip. - - - - - -
02/08:30am 11.8 WSW 7 9 1015.2 - 2.6 - - - - - - -
02/08:00am 9.0 WSW 7 9 1014.9 - 2.6 - - - - - - -
02/07:30am 8.7 WSW 7 9 1014.6 - 2.6 - - - - - - -
02/07:00am 7.8 WSW 6 7 1013.9 - 2.6 - - - - - - -
02/06:30am 8.4 WSW 8 11 1013.6 - 2.6 - - - - - - -
02/06:00am 8.7 WSW 9 12 1013.1 - 2.6 - - - - - - -
02/05:30am 8.3 W 9 11 1012.7 - 2.6 - - - - - - -
02/05:00am 9.0 W 11 13 1012.1 - 2.6 - - - - - - -
02/04:30am 9.0 W 11 13 1011.8 - 2.6 - - - - - - -
02/04:00am 9.3 W 10 13 1011.7 - 2.6 - - - - - - -
02/03:30am 9.7 WSW 11 15 1011.5 - 2.6 - - - - - - -
02/03:00am 9.7 W 11 14 1011.4 - 2.6 - - - - - - -
02/02:30am 9.5 W 11 13 1011.3 - 2.6 - - - - - - -
02/02:00am 9.5 W 9 12 1011.0 - 2.6 - - - - - - -
02/01:30am 9.8 W 8 11 1011.1 - 2.6 - - - - - - -
02/01:00am 10.0 W 9 11 1011.0 - 2.6 - - - - - - -
02/12:30am 10.4 W 10 14 1010.6 - 2.6 - - - - - - -
02/12:00am 10.3 W 10 12 1010.6 - 2.6 - - - - - - -
 
Date/Time
EST
Temp

°C
Wind Pressure Rain
since 9am
mm
Weather Cloud Vis
km
Sea
Height
m
Swell
Dir
 
Speed
knots
Gust
knots
hPa Trend Height
m
Period
s
Dir
01/11:30pm 10.3 W 9 13 1010.4 - 2.6 - - - - - - -
01/11:00pm 10.4 W 9 12 1010.6 - 2.6 - - - - - - -
01/10:30pm 10.3 W 10 14 1010.5 - 2.6 - - - - - - -
01/10:00pm 10.5 W 9 11 1010.4 - 2.6 - - - - - - -
01/09:30pm 10.6 W 9 11 1010.2 - 2.6 - - - - - - -
01/09:00pm 10.6 WNW 8 11 1010.1 - 2.6 Recent precip. - - - - - -
01/08:30pm 10.3 WNW 7 8 1009.8 - 2.6 - - - - - - -
01/08:00pm 10.4 WNW 8 11 1009.8 - 2.4 - - - - - - -
01/07:30pm 10.6 WNW 8 11 1009.8 - 0.8 - - - - - - -
01/07:00pm 10.8 W 12 15 1009.3 - 0.4 - - - - - - -
01/06:30pm 10.9 WSW 5 6 1008.9 - 0.4 - - - - - - -
01/06:00pm 11.3 WNW 7 8 1008.4 - 0.4 - - - - - - -
01/05:30pm 11.6 NNW 8 11 1007.8 - 0.4 - - - - - - -
01/05:00pm 12.0 NW 9 12 1007.9 - 0.4 - - - - - - -
01/04:30pm 12.5 WNW 9 11 1007.9 - 0.4 - - - - - - -
01/04:00pm 12.8 WNW 9 12 1007.6 - 0.2 - - - - - - -
01/03:30pm 12.6 WNW 11 14 1007.5 - 0.2 - - - - - - -
01/03:00pm 13.0 WNW 16 22 1007.2 - 0.0 - - - - - - -
01/02:30pm 13.7 W 16 22 1007.2 - 0.0 - - - - - - -
01/02:21pm 14.2 W 20 30 1007.1 - 0.0 - - - - - - -
01/02:00pm 15.9 W 13 22 1006.6 - 0.0 - - - - - - -
01/01:30pm 16.2 W 12 18 1006.6 - 0.0 - - - - - - -
01/01:00pm 16.4 W 11 14 1006.6 - 0.0 - - - - - - -
01/12:30pm 17.1 W 9 13 1006.7 - 0.0 - - - - - - -
01/12:00pm 17.2 W 12 17 1007.0 - 0.0 - - - - - - -
01/11:30am 18.2 SW 8 9 1007.3 - 0.0 - - - - - - -
01/11:00am 18.1 N 6 8 1007.4 - 0.0 - - - - - - -
01/10:30am 17.5 N 11 13 1007.6 - 0.0 - - - - - - -
01/10:00am 17.9 N 15 19 1007.4 - 0.0 - - - - - - -
01/09:30am 17.5 N 15 21 1007.4 - 0.0 - - - - - - -
01/09:00am 17.4 N 17 21 1007.6 - 0.2 - - - - - - -
01/08:30am 17.5 N 17 23 1008.1 - 0.2 - - - - - - -
01/08:00am 17.6 N 16 22 1008.2 - 0.2 - - - - - - -
01/07:30am 17.5 N 17 23 1008.1 - 0.2 - - - - - - -
01/07:00am 16.6 N 14 19 1008.2 - 0.2 - - - - - - -
01/06:30am 16.3 N 13 16 1008.5 - 0.2 - - - - - - -
01/06:00am 16.4 NNW 12 16 1008.9 - 0.2 - - - - - - -
01/05:30am 14.1 NNE 3 7 1008.5 - 0.2 - - - - - - -
01/05:00am 12.9 ENE 7 9 1008.3 - 0.2 - - - - - - -
01/04:30am 12.9 NE 8 11 1008.2 - 0.2 - - - - - - -
01/04:00am 13.2 ENE 9 12 1008.6 - 0.2 - - - - - - -
01/03:30am 13.8 NE 8 11 1009.1 - 0.2 - - - - - - -
01/03:00am 13.7 NE 7 9 1009.5 - 0.2 - - - - - - -
01/02:30am 14.2 NNE 9 11 1009.8 - 0.2 - - - - - - -
01/02:00am 13.9 NNE 8 10 1010.0 - 0.2 - - - - - - -
01/01:30am 16.0 NNE 12 17 1009.9 - 0.2 - - - - - - -
01/01:00am 16.1 NNE 13 17 1009.8 - 0.2 - - - - - - -
01/12:30am 15.6 N 13 15 1010.4 - 0.2 - - - - - - -
01/12:00am 15.3 N 11 15 1011.1 - 0.2 - - - - - - -
 
Date/Time
EST
Temp

°C
Wind Pressure Rain
since 9am
mm
Weather Cloud Vis
km
Sea
Height
m
Swell
Dir
 
Speed
knots
Gust
knots
hPa Trend Height
m
Period
s
Dir
31/11:30pm 15.2 N 12 16 1011.6 - 0.2 - - - - - - -
31/11:00pm 15.1 N 12 15 1012.1 - 0.2 - - - - - - -
31/10:30pm 15.4 N 12 14 1012.7 - 0.2 - - - - - - -
31/10:00pm 14.9 N 11 14 1013.0 - 0.2 - - - - - - -
31/09:30pm 14.3 N 10 11 1013.4 - 0.2 - - - - - - -
31/09:00pm 13.1 ENE 7 8 1013.6 - 0.2 - - - - - - -
31/08:30pm 13.7 NE 7 9 1013.8 - 0.2 - - - - - - -
31/08:00pm 13.7 NE 7 9 1014.1 - 0.2 - - - - - - -
31/07:30pm 13.2 NE 7 9 1014.1 - 0.2 - - - - - - -
31/07:00pm 10.7 NNE 7 9 1014.3 - 0.2 - - - - - - -
31/06:30pm 11.3 NE 5 7 1014.2 - 0.2 - - - - - - -
31/06:00pm 12.9 ENE 7 8 1013.9 - 0.2 - - - - - - -

Other Formats:

Comma delimited format used in spreadsheet applications
http://www.bom.gov.au/fwo/IDV60701/IDV60701.95890.axf

JavaScript Object Notation format (JSON) in row-major order
http://www.bom.gov.au/fwo/IDV60701/IDV60701.95890.json